createdAt,value
2023-04-25T00:05:53.877Z,0.00
2023-04-25T00:16:01.508Z,0.00
2023-04-25T00:26:08.320Z,0.00
2023-04-25T00:36:15.776Z,0.00
2023-04-25T00:46:22.576Z,0.00
2023-04-25T00:56:30.575Z,0.00
2023-04-25T01:06:38.539Z,0.00
2023-04-25T01:16:45.291Z,0.00
2023-04-25T01:26:52.516Z,0.00
2023-04-25T01:36:59.796Z,0.00
2023-04-25T01:47:06.366Z,0.00
2023-04-25T01:57:13.609Z,0.00
2023-04-25T02:07:20.928Z,0.00
2023-04-25T02:17:28.018Z,0.00
2023-04-25T02:27:34.989Z,0.00
2023-04-25T02:37:42.226Z,0.00
2023-04-25T02:47:49.680Z,0.00
2023-04-25T02:57:57.118Z,0.00
2023-04-25T03:08:04.960Z,0.00
2023-04-25T03:18:11.858Z,0.00
2023-04-25T03:28:18.746Z,0.00
2023-04-25T03:38:26.290Z,0.00
2023-04-25T03:48:33.092Z,0.00
2023-04-25T03:58:40.596Z,4.00
2023-04-25T04:08:47.058Z,12.00
2023-04-25T04:18:54.357Z,16.00
2023-04-25T04:29:01.435Z,28.00
2023-04-25T04:39:08.478Z,40.00
2023-04-25T04:49:15.194Z,44.00
2023-04-25T04:59:22.898Z,32.00
2023-04-25T05:09:30.170Z,40.00
2023-04-25T05:19:37.297Z,80.00
2023-04-25T05:29:44.229Z,84.00
2023-04-25T05:39:51.306Z,104.00
2023-04-25T05:49:58.401Z,100.00
2023-04-25T06:00:05.385Z,124.00
2023-04-25T06:10:12.695Z,148.00
2023-04-25T06:20:19.531Z,132.00
2023-04-25T06:30:25.704Z,124.00
2023-04-25T06:40:32.990Z,104.00
2023-04-25T06:50:39.889Z,104.00
2023-04-25T07:00:47.107Z,100.00
2023-04-25T07:10:54.286Z,92.00
2023-04-25T07:21:01.490Z,172.00
2023-04-25T07:31:08.998Z,312.00
2023-04-25T07:41:16.080Z,156.00
2023-04-25T07:51:23.039Z,180.00
2023-04-25T08:01:30.062Z,384.00
2023-04-25T08:11:37.007Z,332.00
2023-04-25T08:21:44.118Z,548.00
2023-04-25T08:31:51.632Z,368.00
2023-04-25T08:41:59.490Z,868.00
2023-04-25T08:52:06.571Z,5624.00
2023-04-25T09:02:13.897Z,9520.00
2023-04-25T09:12:21.798Z,5756.00
2023-04-25T09:22:29.405Z,6156.00
2023-04-25T09:32:36.503Z,656.00
2023-04-25T09:42:43.886Z,352.00
2023-04-25T09:52:50.738Z,560.00
2023-04-25T10:02:58.058Z,812.00
2023-04-25T10:13:06.278Z,432.00
2023-04-25T10:23:12.788Z,392.00
2023-04-25T10:33:20.000Z,420.00
2023-04-25T10:43:26.896Z,396.00
2023-04-25T10:53:34.105Z,656.00
2023-04-25T11:03:41.201Z,276.00
2023-04-25T11:13:48.019Z,4.00
2023-04-25T11:23:55.461Z,116.00
2023-04-25T11:34:02.772Z,152.00
2023-04-25T11:44:10.163Z,168.00
2023-04-25T11:54:17.267Z,192.00
2023-04-25T12:04:24.560Z,172.00
2023-04-25T12:14:32.435Z,168.00
2023-04-25T12:24:39.742Z,216.00
2023-04-25T12:34:47.335Z,180.00
2023-04-25T12:44:54.281Z,148.00
2023-04-25T12:55:01.244Z,148.00
2023-04-25T13:05:08.408Z,168.00
2023-04-25T13:15:15.223Z,144.00
2023-04-25T13:25:22.400Z,164.00
2023-04-25T13:35:29.807Z,136.00
2023-04-25T13:45:36.733Z,144.00
2023-04-25T13:55:44.300Z,108.00
2023-04-25T14:05:51.335Z,88.00
2023-04-25T14:15:58.734Z,80.00
2023-04-25T14:26:06.056Z,112.00
2023-04-25T14:36:12.988Z,116.00
2023-04-25T14:46:20.375Z,88.00
2023-04-25T14:56:27.814Z,68.00
2023-04-25T15:06:34.964Z,84.00
2023-04-25T15:16:42.134Z,92.00
2023-04-25T15:26:49.464Z,100.00
2023-04-25T15:36:56.739Z,92.00
2023-04-25T15:47:04.553Z,148.00
2023-04-25T15:57:12.324Z,144.00
2023-04-25T16:07:19.491Z,64.00
2023-04-25T16:17:26.220Z,52.00
2023-04-25T16:27:34.406Z,52.00
2023-04-25T16:37:41.303Z,44.00
2023-04-25T16:47:48.828Z,72.00
2023-04-25T16:57:56.290Z,72.00
2023-04-25T17:08:03.943Z,52.00
2023-04-25T17:18:10.652Z,52.00
2023-04-25T17:28:17.474Z,20.00
2023-04-25T17:38:24.644Z,16.00
2023-04-25T17:48:32.065Z,12.00
2023-04-25T17:58:38.416Z,8.00
2023-04-25T18:08:45.729Z,0.00
2023-04-25T18:18:53.241Z,4.00
2023-04-25T18:29:01.105Z,0.00
2023-04-25T18:39:19.438Z,0.00
2023-04-25T18:49:20.341Z,0.00
2023-04-25T18:59:26.935Z,0.00
2023-04-25T19:09:33.159Z,0.00
2023-04-25T19:19:40.184Z,0.00
2023-04-25T19:29:47.262Z,0.00
2023-04-25T19:39:54.328Z,0.00
2023-04-25T19:50:01.371Z,0.00
2023-04-25T20:00:08.469Z,0.00
2023-04-25T20:10:15.494Z,0.00
2023-04-25T20:20:23.886Z,0.00
2023-04-25T20:30:30.789Z,0.00
2023-04-25T20:40:37.952Z,0.00
2023-04-25T20:50:44.500Z,0.00
2023-04-25T21:00:51.956Z,0.00
2023-04-25T21:10:59.447Z,0.00
2023-04-25T21:21:06.745Z,0.00
2023-04-25T21:31:14.039Z,0.00
2023-04-25T21:41:21.536Z,0.00
2023-04-25T21:51:29.097Z,0.00
2023-04-25T22:01:36.570Z,0.00
2023-04-25T22:11:43.850Z,0.00
2023-04-25T22:21:51.293Z,0.00
2023-04-25T22:31:58.010Z,0.00
2023-04-25T22:42:05.069Z,0.00
2023-04-25T22:52:12.061Z,0.00
2023-04-25T23:02:19.351Z,0.00
2023-04-25T23:12:26.094Z,0.00
2023-04-25T23:22:33.325Z,0.00
2023-04-25T23:32:40.129Z,0.00
2023-04-25T23:42:47.212Z,0.00
2023-04-25T23:52:54.082Z,0.00
